Sesena, Spain
Current Conditions -  °F | °C
As of 9:00 PM on Friday 31 Oct 2014 (Local Time) from LEGT Reporting Station
Clear Clear  
Wind Chill: 61°   Ceiling: Unl
Heat Index: 61°   Visibility: 6mi
Dew Point: 45°   Wind: 2mph
Humidity: 55%   Direction: 50°NE
Pressure: 30.21"   Gusts: NA
Location:  40.1°N, 3.7°W
Report Text: LEGT 312000Z 05002KT CAVOK 16/07 Q1023
Loading
Personal Weather Stations






























Interactive Weather Map
Tropical Storm Tracking
New forecast layout! Learn more

10-Day Weather Forecast

Advertisements
Track Severe Weather on mobile